sensor_id;sensor_type;location;lat;lon;timestamp;temperature;humidity
26952;DHT22;14507;52.418;13.398;2024-02-26T00:02:19;3.80;99.90
26952;DHT22;14507;52.418;13.398;2024-02-26T00:04:45;3.70;99.90
26952;DHT22;14507;52.418;13.398;2024-02-26T00:07:10;3.70;99.90
26952;DHT22;14507;52.418;13.398;2024-02-26T00:09:36;3.70;99.90
26952;DHT22;14507;52.418;13.398;2024-02-26T00:12:03;3.70;99.90
26952;DHT22;14507;52.418;13.398;2024-02-26T00:14:32;3.70;99.90
26952;DHT22;14507;52.418;13.398;2024-02-26T00:16:57;3.70;99.90
26952;DHT22;14507;52.418;13.398;2024-02-26T00:19:23;3.70;99.90
26952;DHT22;14507;52.418;13.398;2024-02-26T00:21:49;3.60;99.90
26952;DHT22;14507;52.418;13.398;2024-02-26T00:24:14;3.60;99.90
26952;DHT22;14507;52.418;13.398;2024-02-26T00:26:40;3.70;99.90
26952;DHT22;14507;52.418;13.398;2024-02-26T00:29:05;3.70;99.90
26952;DHT22;14507;52.418;13.398;2024-02-26T00:31:31;3.60;99.90
26952;DHT22;14507;52.418;13.398;2024-02-26T00:33:57;3.60;99.90
26952;DHT22;14507;52.418;13.398;2024-02-26T00:36:22;3.50;99.90
26952;DHT22;14507;52.418;13.398;2024-02-26T00:38:48;3.60;99.90
26952;DHT22;14507;52.418;13.398;2024-02-26T00:41:20;3.60;99.90
26952;DHT22;14507;52.418;13.398;2024-02-26T00:43:46;3.50;99.90
26952;DHT22;14507;52.418;13.398;2024-02-26T00:46:12;3.40;99.90
26952;DHT22;14507;52.418;13.398;2024-02-26T00:48:37;3.50;99.90
26952;DHT22;14507;52.418;13.398;2024-02-26T00:51:04;3.40;99.90
26952;DHT22;14507;52.418;13.398;2024-02-26T00:53:33;3.30;99.90
26952;DHT22;14507;52.418;13.398;2024-02-26T00:55:59;3.30;99.90
26952;DHT22;14507;52.418;13.398;2024-02-26T00:58:25;3.20;99.90
26952;DHT22;14507;52.418;13.398;2024-02-26T01:00:51;3.30;99.90
26952;DHT22;14507;52.418;13.398;2024-02-26T01:03:20;3.20;99.90
26952;DHT22;14507;52.418;13.398;2024-02-26T01:05:45;3.20;99.90
26952;DHT22;14507;52.418;13.398;2024-02-26T01:08:11;3.10;99.90
26952;DHT22;14507;52.418;13.398;2024-02-26T01:10:37;3.20;99.90
26952;DHT22;14507;52.418;13.398;2024-02-26T01:13:02;3.00;99.90
26952;DHT22;14507;52.418;13.398;2024-02-26T01:15:28;3.00;99.90
26952;DHT22;14507;52.418;13.398;2024-02-26T01:17:54;3.00;99.90
26952;DHT22;14507;52.418;13.398;2024-02-26T01:20:20;3.00;99.90
26952;DHT22;14507;52.418;13.398;2024-02-26T01:22:45;2.90;99.90
26952;DHT22;14507;52.418;13.398;2024-02-26T01:25:14;3.00;99.90
26952;DHT22;14507;52.418;13.398;2024-02-26T01:27:41;2.90;99.90
26952;DHT22;14507;52.418;13.398;2024-02-26T01:30:08;3.00;99.90
26952;DHT22;14507;52.418;13.398;2024-02-26T01:32:34;2.90;99.90
26952;DHT22;14507;52.418;13.398;2024-02-26T01:35:01;2.90;99.90
26952;DHT22;14507;52.418;13.398;2024-02-26T01:37:29;2.80;99.90
26952;DHT22;14507;52.418;13.398;2024-02-26T01:39:55;2.80;99.90
26952;DHT22;14507;52.418;13.398;2024-02-26T01:42:21;2.90;99.90
26952;DHT22;14507;52.418;13.398;2024-02-26T01:44:46;3.00;99.90
26952;DHT22;14507;52.418;13.398;2024-02-26T01:47:13;3.60;99.90
26952;DHT22;14507;52.418;13.398;2024-02-26T01:49:39;2.80;99.90
26952;DHT22;14507;52.418;13.398;2024-02-26T01:52:07;2.70;99.90
26952;DHT22;14507;52.418;13.398;2024-02-26T01:54:37;2.70;99.90
26952;DHT22;14507;52.418;13.398;2024-02-26T01:57:04;2.70;99.90
26952;DHT22;14507;52.418;13.398;2024-02-26T01:59:30;2.60;99.90
26952;DHT22;14507;52.418;13.398;2024-02-26T02:01:59;2.60;99.90
26952;DHT22;14507;52.418;13.398;2024-02-26T02:04:27;2.60;99.90
26952;DHT22;14507;52.418;13.398;2024-02-26T02:06:53;2.60;99.90
26952;DHT22;14507;52.418;13.398;2024-02-26T02:09:20;2.60;99.90
26952;DHT22;14507;52.418;13.398;2024-02-26T02:11:47;2.60;99.90
26952;DHT22;14507;52.418;13.398;2024-02-26T02:14:13;2.70;99.90
26952;DHT22;14507;52.418;13.398;2024-02-26T02:16:39;2.50;99.90
26952;DHT22;14507;52.418;13.398;2024-02-26T02:19:05;2.50;99.90
26952;DHT22;14507;52.418;13.398;2024-02-26T02:21:30;2.50;99.90
26952;DHT22;14507;52.418;13.398;2024-02-26T02:23:56;2.40;99.90
26952;DHT22;14507;52.418;13.398;2024-02-26T02:26:22;2.50;99.90
26952;DHT22;14507;52.418;13.398;2024-02-26T02:28:48;2.60;99.90
26952;DHT22;14507;52.418;13.398;2024-02-26T02:31:15;2.50;99.90
26952;DHT22;14507;52.418;13.398;2024-02-26T02:33:41;2.50;99.90
26952;DHT22;14507;52.418;13.398;2024-02-26T02:36:07;2.50;99.90
26952;DHT22;14507;52.418;13.398;2024-02-26T02:38:41;2.40;99.90
26952;DHT22;14507;52.418;13.398;2024-02-26T02:41:14;2.50;99.90
26952;DHT22;14507;52.418;13.398;2024-02-26T02:43:40;2.50;99.90
26952;DHT22;14507;52.418;13.398;2024-02-26T02:46:05;2.50;99.90
26952;DHT22;14507;52.418;13.398;2024-02-26T02:48:31;2.40;99.90
26952;DHT22;14507;52.418;13.398;2024-02-26T02:50:56;2.50;99.90
26952;DHT22;14507;52.418;13.398;2024-02-26T02:53:22;2.40;99.90
26952;DHT22;14507;52.418;13.398;2024-02-26T02:55:48;2.40;99.90
26952;DHT22;14507;52.418;13.398;2024-02-26T02:58:13;2.40;99.90
26952;DHT22;14507;52.418;13.398;2024-02-26T03:00:39;2.30;99.90
26952;DHT22;14507;52.418;13.398;2024-02-26T03:03:05;2.30;99.90
26952;DHT22;14507;52.418;13.398;2024-02-26T03:05:30;2.20;99.90
26952;DHT22;14507;52.418;13.398;2024-02-26T03:07:56;2.30;99.90
26952;DHT22;14507;52.418;13.398;2024-02-26T03:10:21;2.10;99.90
26952;DHT22;14507;52.418;13.398;2024-02-26T03:12:47;2.20;99.90
26952;DHT22;14507;52.418;13.398;2024-02-26T03:15:12;2.30;99.90
26952;DHT22;14507;52.418;13.398;2024-02-26T03:17:38;2.20;99.90
26952;DHT22;14507;52.418;13.398;2024-02-26T03:20:04;2.20;99.90
26952;DHT22;14507;52.418;13.398;2024-02-26T03:22:30;2.20;99.90
26952;DHT22;14507;52.418;13.398;2024-02-26T03:24:56;2.20;99.90
26952;DHT22;14507;52.418;13.398;2024-02-26T03:27:22;2.20;99.90
26952;DHT22;14507;52.418;13.398;2024-02-26T03:29:48;2.20;99.90
26952;DHT22;14507;52.418;13.398;2024-02-26T03:32:14;2.20;99.90
26952;DHT22;14507;52.418;13.398;2024-02-26T03:34:40;2.20;99.90
26952;DHT22;14507;52.418;13.398;2024-02-26T03:37:05;2.10;99.90
26952;DHT22;14507;52.418;13.398;2024-02-26T03:39:32;2.10;99.90
26952;DHT22;14507;52.418;13.398;2024-02-26T03:41:58;2.10;99.90
26952;DHT22;14507;52.418;13.398;2024-02-26T03:44:24;2.10;99.90
26952;DHT22;14507;52.418;13.398;2024-02-26T03:46:49;2.50;99.90
26952;DHT22;14507;52.418;13.398;2024-02-26T03:49:15;2.20;99.90
26952;DHT22;14507;52.418;13.398;2024-02-26T03:51:41;2.00;99.90
26952;DHT22;14507;52.418;13.398;2024-02-26T03:54:07;2.60;99.90
26952;DHT22;14507;52.418;13.398;2024-02-26T03:56:33;2.00;99.90
26952;DHT22;14507;52.418;13.398;2024-02-26T03:58:58;2.00;99.90
26952;DHT22;14507;52.418;13.398;2024-02-26T04:01:25;2.00;99.90
26952;DHT22;14507;52.418;13.398;2024-02-26T04:03:51;2.00;99.90
26952;DHT22;14507;52.418;13.398;2024-02-26T04:06:18;2.00;99.90
26952;DHT22;14507;52.418;13.398;2024-02-26T04:08:49;2.00;99.90
26952;DHT22;14507;52.418;13.398;2024-02-26T04:11:14;1.90;99.90
26952;DHT22;14507;52.418;13.398;2024-02-26T04:13:44;1.90;99.90
26952;DHT22;14507;52.418;13.398;2024-02-26T04:16:11;1.90;99.90
26952;DHT22;14507;52.418;13.398;2024-02-26T04:18:37;1.90;99.90
26952;DHT22;14507;52.418;13.398;2024-02-26T04:21:04;1.80;99.90
26952;DHT22;14507;52.418;13.398;2024-02-26T04:23:31;1.90;99.90
26952;DHT22;14507;52.418;13.398;2024-02-26T04:25:56;1.90;99.90
26952;DHT22;14507;52.418;13.398;2024-02-26T04:28:22;1.90;99.90
26952;DHT22;14507;52.418;13.398;2024-02-26T04:30:47;1.90;99.90
26952;DHT22;14507;52.418;13.398;2024-02-26T04:33:14;1.90;99.90
26952;DHT22;14507;52.418;13.398;2024-02-26T04:35:39;1.90;99.90
26952;DHT22;14507;52.418;13.398;2024-02-26T04:38:05;1.90;99.90
26952;DHT22;14507;52.418;13.398;2024-02-26T04:40:30;2.00;99.90
26952;DHT22;14507;52.418;13.398;2024-02-26T04:42:56;2.00;99.90
26952;DHT22;14507;52.418;13.398;2024-02-26T04:45:22;2.30;99.90
26952;DHT22;14507;52.418;13.398;2024-02-26T04:47:48;2.00;99.90
26952;DHT22;14507;52.418;13.398;2024-02-26T04:50:14;2.10;99.90
26952;DHT22;14507;52.418;13.398;2024-02-26T04:52:42;2.10;99.90
26952;DHT22;14507;52.418;13.398;2024-02-26T04:55:08;2.00;99.90
26952;DHT22;14507;52.418;13.398;2024-02-26T04:57:33;2.10;99.90
26952;DHT22;14507;52.418;13.398;2024-02-26T04:59:59;2.10;99.90
26952;DHT22;14507;52.418;13.398;2024-02-26T05:02:25;2.10;99.90
26952;DHT22;14507;52.418;13.398;2024-02-26T05:04:50;2.20;99.90
26952;DHT22;14507;52.418;13.398;2024-02-26T05:07:16;2.10;99.90
26952;DHT22;14507;52.418;13.398;2024-02-26T05:09:44;2.10;99.90
26952;DHT22;14507;52.418;13.398;2024-02-26T05:12:10;2.10;99.90
26952;DHT22;14507;52.418;13.398;2024-02-26T05:14:36;2.10;99.90
26952;DHT22;14507;52.418;13.398;2024-02-26T05:17:01;2.10;99.90
26952;DHT22;14507;52.418;13.398;2024-02-26T05:19:31;2.10;99.90
26952;DHT22;14507;52.418;13.398;2024-02-26T05:21:57;2.10;99.90
26952;DHT22;14507;52.418;13.398;2024-02-26T05:24:22;2.10;99.90
26952;DHT22;14507;52.418;13.398;2024-02-26T05:26:48;2.10;99.90
26952;DHT22;14507;52.418;13.398;2024-02-26T05:29:14;2.10;99.90
26952;DHT22;14507;52.418;13.398;2024-02-26T05:31:42;2.10;99.90
26952;DHT22;14507;52.418;13.398;2024-02-26T05:34:11;2.10;99.90
26952;DHT22;14507;52.418;13.398;2024-02-26T05:36:36;2.10;99.90
26952;DHT22;14507;52.418;13.398;2024-02-26T05:39:02;2.10;99.90
26952;DHT22;14507;52.418;13.398;2024-02-26T05:41:29;2.20;99.90
26952;DHT22;14507;52.418;13.398;2024-02-26T05:43:55;2.10;99.90
26952;DHT22;14507;52.418;13.398;2024-02-26T05:46:21;2.50;99.90
26952;DHT22;14507;52.418;13.398;2024-02-26T05:48:48;2.10;99.90
26952;DHT22;14507;52.418;13.398;2024-02-26T05:51:14;2.10;99.90
26952;DHT22;14507;52.418;13.398;2024-02-26T05:53:41;2.20;99.90
26952;DHT22;14507;52.418;13.398;2024-02-26T05:56:06;2.20;99.90
26952;DHT22;14507;52.418;13.398;2024-02-26T05:58:32;2.20;99.90
26952;DHT22;14507;52.418;13.398;2024-02-26T06:00:58;2.20;99.90
26952;DHT22;14507;52.418;13.398;2024-02-26T06:03:25;2.20;99.90
26952;DHT22;14507;52.418;13.398;2024-02-26T06:05:51;2.30;99.90
26952;DHT22;14507;52.418;13.398;2024-02-26T06:08:16;2.30;99.90
26952;DHT22;14507;52.418;13.398;2024-02-26T06:10:42;2.30;99.90
26952;DHT22;14507;52.418;13.398;2024-02-26T06:13:08;2.60;99.90
26952;DHT22;14507;52.418;13.398;2024-02-26T06:15:33;2.30;99.90
26952;DHT22;14507;52.418;13.398;2024-02-26T06:17:59;2.30;99.90
26952;DHT22;14507;52.418;13.398;2024-02-26T06:20:25;2.40;99.90
26952;DHT22;14507;52.418;13.398;2024-02-26T06:22:51;2.40;99.90
26952;DHT22;14507;52.418;13.398;2024-02-26T06:25:16;2.40;99.90
26952;DHT22;14507;52.418;13.398;2024-02-26T06:27:42;2.40;99.90
26952;DHT22;14507;52.418;13.398;2024-02-26T06:30:11;2.50;99.90
26952;DHT22;14507;52.418;13.398;2024-02-26T06:32:39;2.60;99.90
26952;DHT22;14507;52.418;13.398;2024-02-26T06:35:05;2.70;99.90
26952;DHT22;14507;52.418;13.398;2024-02-26T06:37:33;2.70;99.90
26952;DHT22;14507;52.418;13.398;2024-02-26T06:40:02;2.80;99.90
26952;DHT22;14507;52.418;13.398;2024-02-26T06:42:29;2.80;99.90
26952;DHT22;14507;52.418;13.398;2024-02-26T06:44:56;2.90;99.90
26952;DHT22;14507;52.418;13.398;2024-02-26T06:47:21;2.90;99.90
26952;DHT22;14507;52.418;13.398;2024-02-26T06:49:47;3.00;99.90
26952;DHT22;14507;52.418;13.398;2024-02-26T06:52:13;3.10;99.90
26952;DHT22;14507;52.418;13.398;2024-02-26T06:54:38;3.40;99.90
26952;DHT22;14507;52.418;13.398;2024-02-26T06:57:04;4.50;99.90
26952;DHT22;14507;52.418;13.398;2024-02-26T06:59:29;6.10;99.90
26952;DHT22;14507;52.418;13.398;2024-02-26T07:01:55;7.90;99.90
26952;DHT22;14507;52.418;13.398;2024-02-26T07:04:21;9.40;99.90
26952;DHT22;14507;52.418;13.398;2024-02-26T07:06:47;10.40;99.90
26952;DHT22;14507;52.418;13.398;2024-02-26T07:09:13;11.00;99.90
26952;DHT22;14507;52.418;13.398;2024-02-26T07:11:39;11.10;99.90
26952;DHT22;14507;52.418;13.398;2024-02-26T07:14:12;10.50;99.90
26952;DHT22;14507;52.418;13.398;2024-02-26T07:16:38;9.60;99.90
26952;DHT22;14507;52.418;13.398;2024-02-26T07:19:04;8.70;99.90
26952;DHT22;14507;52.418;13.398;2024-02-26T07:21:29;7.90;99.90
26952;DHT22;14507;52.418;13.398;2024-02-26T07:23:55;7.10;99.90
26952;DHT22;14507;52.418;13.398;2024-02-26T07:26:21;6.60;99.90
26952;DHT22;14507;52.418;13.398;2024-02-26T07:28:47;6.20;99.90
26952;DHT22;14507;52.418;13.398;2024-02-26T07:31:13;6.10;99.90
26952;DHT22;14507;52.418;13.398;2024-02-26T07:33:39;5.70;99.90
26952;DHT22;14507;52.418;13.398;2024-02-26T07:36:04;5.50;99.90
26952;DHT22;14507;52.418;13.398;2024-02-26T07:38:30;5.40;99.90
26952;DHT22;14507;52.418;13.398;2024-02-26T07:40:56;5.30;99.90
26952;DHT22;14507;52.418;13.398;2024-02-26T07:43:22;5.30;99.90
26952;DHT22;14507;52.418;13.398;2024-02-26T07:45:48;5.20;99.90
26952;DHT22;14507;52.418;13.398;2024-02-26T07:48:13;5.20;99.90
26952;DHT22;14507;52.418;13.398;2024-02-26T07:50:39;5.20;99.90
26952;DHT22;14507;52.418;13.398;2024-02-26T07:53:06;5.10;99.90
26952;DHT22;14507;52.418;13.398;2024-02-26T07:55:31;5.20;99.90
26952;DHT22;14507;52.418;13.398;2024-02-26T07:57:57;5.20;99.90
26952;DHT22;14507;52.418;13.398;2024-02-26T08:00:26;5.20;99.90
26952;DHT22;14507;52.418;13.398;2024-02-26T08:02:52;5.30;99.90
26952;DHT22;14507;52.418;13.398;2024-02-26T08:05:17;5.30;99.90
26952;DHT22;14507;52.418;13.398;2024-02-26T08:07:43;5.30;99.90
26952;DHT22;14507;52.418;13.398;2024-02-26T08:10:09;5.40;99.90
26952;DHT22;14507;52.418;13.398;2024-02-26T08:12:38;5.40;99.90
26952;DHT22;14507;52.418;13.398;2024-02-26T08:15:04;5.50;99.90
26952;DHT22;14507;52.418;13.398;2024-02-26T08:17:30;5.60;99.90
26952;DHT22;14507;52.418;13.398;2024-02-26T08:19:58;5.70;99.90
26952;DHT22;14507;52.418;13.398;2024-02-26T08:22:24;5.90;99.90
26952;DHT22;14507;52.418;13.398;2024-02-26T08:24:50;6.20;99.90
26952;DHT22;14507;52.418;13.398;2024-02-26T08:27:15;6.90;99.90
26952;DHT22;14507;52.418;13.398;2024-02-26T08:29:41;7.90;99.90
26952;DHT22;14507;52.418;13.398;2024-02-26T08:32:06;8.90;99.90
26952;DHT22;14507;52.418;13.398;2024-02-26T08:34:32;9.90;99.90
26952;DHT22;14507;52.418;13.398;2024-02-26T08:36:58;10.90;99.90
26952;DHT22;14507;52.418;13.398;2024-02-26T08:39:24;11.30;99.90
26952;DHT22;14507;52.418;13.398;2024-02-26T08:41:51;11.40;99.90
26952;DHT22;14507;52.418;13.398;2024-02-26T08:44:17;11.20;99.90
26952;DHT22;14507;52.418;13.398;2024-02-26T08:46:42;11.00;99.90
26952;DHT22;14507;52.418;13.398;2024-02-26T08:49:08;11.50;99.90
26952;DHT22;14507;52.418;13.398;2024-02-26T08:51:34;12.30;99.90
26952;DHT22;14507;52.418;13.398;2024-02-26T08:53:59;13.20;98.70
26952;DHT22;14507;52.418;13.398;2024-02-26T08:56:25;13.60;98.30
26952;DHT22;14507;52.418;13.398;2024-02-26T08:58:50;14.00;96.50
26952;DHT22;14507;52.418;13.398;2024-02-26T09:01:18;14.10;96.50
26952;DHT22;14507;52.418;13.398;2024-02-26T09:03:44;14.10;96.40
26952;DHT22;14507;52.418;13.398;2024-02-26T09:06:10;14.40;95.70
26952;DHT22;14507;52.418;13.398;2024-02-26T09:08:37;14.40;95.60
26952;DHT22;14507;52.418;13.398;2024-02-26T09:11:03;14.10;95.90
26952;DHT22;14507;52.418;13.398;2024-02-26T09:13:29;13.50;97.10
26952;DHT22;14507;52.418;13.398;2024-02-26T09:15:55;13.00;97.70
26952;DHT22;14507;52.418;13.398;2024-02-26T09:18:20;12.20;99.10
26952;DHT22;14507;52.418;13.398;2024-02-26T09:20:46;11.50;99.90
26952;DHT22;14507;52.418;13.398;2024-02-26T09:23:12;11.00;99.90
26952;DHT22;14507;52.418;13.398;2024-02-26T09:25:37;10.80;99.90
26952;DHT22;14507;52.418;13.398;2024-02-26T09:28:03;10.70;99.90
26952;DHT22;14507;52.418;13.398;2024-02-26T09:30:29;11.00;99.90
26952;DHT22;14507;52.418;13.398;2024-02-26T09:32:55;11.30;99.90
26952;DHT22;14507;52.418;13.398;2024-02-26T09:35:20;11.50;99.90
26952;DHT22;14507;52.418;13.398;2024-02-26T09:37:46;11.60;99.90
26952;DHT22;14507;52.418;13.398;2024-02-26T09:40:14;11.50;99.90
26952;DHT22;14507;52.418;13.398;2024-02-26T09:42:44;11.30;99.90
26952;DHT22;14507;52.418;13.398;2024-02-26T09:45:17;11.10;99.90
26952;DHT22;14507;52.418;13.398;2024-02-26T09:47:44;10.90;99.90
26952;DHT22;14507;52.418;13.398;2024-02-26T09:50:11;10.60;99.90
26952;DHT22;14507;52.418;13.398;2024-02-26T09:52:41;10.40;99.90
26952;DHT22;14507;52.418;13.398;2024-02-26T09:55:08;10.30;99.90
26952;DHT22;14507;52.418;13.398;2024-02-26T09:57:34;10.20;99.90
26952;DHT22;14507;52.418;13.398;2024-02-26T10:00:03;10.10;99.90
26952;DHT22;14507;52.418;13.398;2024-02-26T10:02:34;10.00;99.90
26952;DHT22;14507;52.418;13.398;2024-02-26T10:05:03;10.00;99.90
26952;DHT22;14507;52.418;13.398;2024-02-26T10:07:31;9.90;99.90
26952;DHT22;14507;52.418;13.398;2024-02-26T10:09:57;9.80;99.90
26952;DHT22;14507;52.418;13.398;2024-02-26T10:12:23;9.80;99.90
26952;DHT22;14507;52.418;13.398;2024-02-26T10:14:51;9.80;99.90
26952;DHT22;14507;52.418;13.398;2024-02-26T10:17:19;9.80;99.90
26952;DHT22;14507;52.418;13.398;2024-02-26T10:19:45;9.80;99.90
26952;DHT22;14507;52.418;13.398;2024-02-26T10:22:11;9.80;99.90
26952;DHT22;14507;52.418;13.398;2024-02-26T10:24:36;9.90;99.90
26952;DHT22;14507;52.418;13.398;2024-02-26T10:27:02;10.00;99.90
26952;DHT22;14507;52.418;13.398;2024-02-26T10:29:28;10.20;99.90
26952;DHT22;14507;52.418;13.398;2024-02-26T10:31:54;10.30;99.90
26952;DHT22;14507;52.418;13.398;2024-02-26T10:34:20;10.50;99.90
26952;DHT22;14507;52.418;13.398;2024-02-26T10:36:46;10.70;99.90
26952;DHT22;14507;52.418;13.398;2024-02-26T10:39:14;11.00;99.90
26952;DHT22;14507;52.418;13.398;2024-02-26T10:41:44;11.10;99.90
26952;DHT22;14507;52.418;13.398;2024-02-26T10:44:11;11.20;99.90
26952;DHT22;14507;52.418;13.398;2024-02-26T10:46:37;11.30;99.90
26952;DHT22;14507;52.418;13.398;2024-02-26T10:49:04;11.30;99.90
26952;DHT22;14507;52.418;13.398;2024-02-26T10:51:31;11.20;99.90
26952;DHT22;14507;52.418;13.398;2024-02-26T10:54:04;11.10;99.90
26952;DHT22;14507;52.418;13.398;2024-02-26T10:56:34;11.10;99.90
26952;DHT22;14507;52.418;13.398;2024-02-26T10:59:00;11.20;99.90
26952;DHT22;14507;52.418;13.398;2024-02-26T11:01:27;11.10;99.90
26952;DHT22;14507;52.418;13.398;2024-02-26T11:03:57;11.00;99.90
26952;DHT22;14507;52.418;13.398;2024-02-26T11:06:26;11.00;99.90
26952;DHT22;14507;52.418;13.398;2024-02-26T11:08:52;11.00;99.90
26952;DHT22;14507;52.418;13.398;2024-02-26T11:11:20;11.10;99.90
26952;DHT22;14507;52.418;13.398;2024-02-26T11:13:47;11.10;99.90
26952;DHT22;14507;52.418;13.398;2024-02-26T11:16:18;11.20;99.90
26952;DHT22;14507;52.418;13.398;2024-02-26T11:18:46;11.20;99.90
26952;DHT22;14507;52.418;13.398;2024-02-26T11:21:15;11.20;99.90
26952;DHT22;14507;52.418;13.398;2024-02-26T11:23:42;11.30;99.90
26952;DHT22;14507;52.418;13.398;2024-02-26T11:26:09;11.30;99.90
26952;DHT22;14507;52.418;13.398;2024-02-26T11:28:35;11.40;99.90
26952;DHT22;14507;52.418;13.398;2024-02-26T11:31:03;11.50;99.90
26952;DHT22;14507;52.418;13.398;2024-02-26T11:33:30;11.70;99.90
26952;DHT22;14507;52.418;13.398;2024-02-26T11:35:56;11.80;99.90
26952;DHT22;14507;52.418;13.398;2024-02-26T11:38:24;11.80;99.90
26952;DHT22;14507;52.418;13.398;2024-02-26T11:40:50;11.70;99.60
26952;DHT22;14507;52.418;13.398;2024-02-26T11:43:16;11.70;99.30
26952;DHT22;14507;52.418;13.398;2024-02-26T11:48:12;11.60;99.70
26952;DHT22;14507;52.418;13.398;2024-02-26T11:50:43;11.60;99.40
26952;DHT22;14507;52.418;13.398;2024-02-26T11:58:43;11.70;99.90
26952;DHT22;14507;52.418;13.398;2024-02-26T12:01:47;11.70;99.90
26952;DHT22;14507;52.418;13.398;2024-02-26T12:04:25;11.80;99.90
26952;DHT22;14507;52.418;13.398;2024-02-26T12:06:56;11.90;99.20
26952;DHT22;14507;52.418;13.398;2024-02-26T12:09:34;12.00;99.30
26952;DHT22;14507;52.418;13.398;2024-02-26T12:12:02;12.00;99.30
26952;DHT22;14507;52.418;13.398;2024-02-26T12:14:28;12.10;99.40
26952;DHT22;14507;52.418;13.398;2024-02-26T12:16:55;12.20;98.60
26952;DHT22;14507;52.418;13.398;2024-02-26T12:19:22;12.30;98.50
26952;DHT22;14507;52.418;13.398;2024-02-26T12:21:51;12.40;98.50
26952;DHT22;14507;52.418;13.398;2024-02-26T12:24:18;12.40;97.60
26952;DHT22;14507;52.418;13.398;2024-02-26T12:26:45;12.40;97.50
26952;DHT22;14507;52.418;13.398;2024-02-26T12:29:10;12.40;96.90
26952;DHT22;14507;52.418;13.398;2024-02-26T12:31:37;12.30;96.10
26952;DHT22;14507;52.418;13.398;2024-02-26T12:34:04;12.30;97.00
26952;DHT22;14507;52.418;13.398;2024-02-26T12:36:30;12.20;97.40
26952;DHT22;14507;52.418;13.398;2024-02-26T12:38:56;12.20;97.80
26952;DHT22;14507;52.418;13.398;2024-02-26T12:41:26;12.20;98.20
26952;DHT22;14507;52.418;13.398;2024-02-26T12:43:53;12.30;97.90
26952;DHT22;14507;52.418;13.398;2024-02-26T12:46:19;12.30;98.10
26952;DHT22;14507;52.418;13.398;2024-02-26T12:48:46;12.40;97.60
26952;DHT22;14507;52.418;13.398;2024-02-26T12:51:12;12.50;95.90
26952;DHT22;14507;52.418;13.398;2024-02-26T12:53:39;12.50;95.50
26952;DHT22;14507;52.418;13.398;2024-02-26T12:56:07;12.50;95.50
26952;DHT22;14507;52.418;13.398;2024-02-26T12:58:35;12.70;95.20
26952;DHT22;14507;52.418;13.398;2024-02-26T13:01:03;12.80;93.50
26952;DHT22;14507;52.418;13.398;2024-02-26T13:03:29;12.80;93.70
26952;DHT22;14507;52.418;13.398;2024-02-26T13:05:55;12.90;92.50
26952;DHT22;14507;52.418;13.398;2024-02-26T13:08:21;12.90;91.70
26952;DHT22;14507;52.418;13.398;2024-02-26T13:10:59;12.80;91.40
26952;DHT22;14507;52.418;13.398;2024-02-26T13:13:25;12.70;91.10
26952;DHT22;14507;52.418;13.398;2024-02-26T13:16:04;12.60;90.80
26952;DHT22;14507;52.418;13.398;2024-02-26T13:18:31;12.50;91.10
26952;DHT22;14507;52.418;13.398;2024-02-26T13:21:16;12.40;90.50
26952;DHT22;14507;52.418;13.398;2024-02-26T13:23:43;12.30;90.80
26952;DHT22;14507;52.418;13.398;2024-02-26T13:26:13;12.30;91.20
26952;DHT22;14507;52.418;13.398;2024-02-26T13:28:40;12.30;91.10
26952;DHT22;14507;52.418;13.398;2024-02-26T13:31:06;12.20;91.50
26952;DHT22;14507;52.418;13.398;2024-02-26T13:33:33;12.20;91.80
26952;DHT22;14507;52.418;13.398;2024-02-26T13:35:59;12.20;92.10
26952;DHT22;14507;52.418;13.398;2024-02-26T13:38:26;12.20;92.00
26952;DHT22;14507;52.418;13.398;2024-02-26T13:40:52;12.20;92.50
26952;DHT22;14507;52.418;13.398;2024-02-26T13:43:21;12.20;92.80
26952;DHT22;14507;52.418;13.398;2024-02-26T13:45:47;12.20;92.90
26952;DHT22;14507;52.418;13.398;2024-02-26T13:48:14;12.20;92.90
26952;DHT22;14507;52.418;13.398;2024-02-26T13:54:02;12.10;93.20
26952;DHT22;14507;52.418;13.398;2024-02-26T13:56:28;12.10;93.40
26952;DHT22;14507;52.418;13.398;2024-02-26T13:58:53;12.00;93.80
26952;DHT22;14507;52.418;13.398;2024-02-26T14:01:19;12.00;94.10
26952;DHT22;14507;52.418;13.398;2024-02-26T14:03:45;12.00;94.10
26952;DHT22;14507;52.418;13.398;2024-02-26T14:06:10;12.00;94.00
26952;DHT22;14507;52.418;13.398;2024-02-26T14:08:37;12.00;94.20
26952;DHT22;14507;52.418;13.398;2024-02-26T14:11:02;12.00;94.10
26952;DHT22;14507;52.418;13.398;2024-02-26T14:13:28;12.00;94.30
26952;DHT22;14507;52.418;13.398;2024-02-26T14:15:54;12.00;93.90
26952;DHT22;14507;52.418;13.398;2024-02-26T14:18:19;12.00;93.90
26952;DHT22;14507;52.418;13.398;2024-02-26T14:20:45;11.90;94.30
26952;DHT22;14507;52.418;13.398;2024-02-26T14:23:11;11.90;94.30
26952;DHT22;14507;52.418;13.398;2024-02-26T14:25:37;11.90;94.50
26952;DHT22;14507;52.418;13.398;2024-02-26T14:28:03;11.90;94.60
26952;DHT22;14507;52.418;13.398;2024-02-26T14:30:29;11.90;94.70
26952;DHT22;14507;52.418;13.398;2024-02-26T14:32:54;11.90;95.20
26952;DHT22;14507;52.418;13.398;2024-02-26T14:35:20;11.90;95.30
26952;DHT22;14507;52.418;13.398;2024-02-26T14:37:46;11.90;95.30
26952;DHT22;14507;52.418;13.398;2024-02-26T14:40:13;11.90;95.40
26952;DHT22;14507;52.418;13.398;2024-02-26T14:42:39;11.90;95.70
26952;DHT22;14507;52.418;13.398;2024-02-26T14:45:05;11.90;96.00
26952;DHT22;14507;52.418;13.398;2024-02-26T14:47:37;11.80;96.30
26952;DHT22;14507;52.418;13.398;2024-02-26T14:50:04;11.70;96.70
26952;DHT22;14507;52.418;13.398;2024-02-26T14:52:29;11.70;97.20
26952;DHT22;14507;52.418;13.398;2024-02-26T14:54:55;11.60;97.60
26952;DHT22;14507;52.418;13.398;2024-02-26T14:57:21;11.60;97.90
26952;DHT22;14507;52.418;13.398;2024-02-26T14:59:46;11.60;98.10
26952;DHT22;14507;52.418;13.398;2024-02-26T15:02:13;11.60;98.20
26952;DHT22;14507;52.418;13.398;2024-02-26T15:04:38;11.50;98.10
26952;DHT22;14507;52.418;13.398;2024-02-26T15:07:04;11.50;98.50
26952;DHT22;14507;52.418;13.398;2024-02-26T15:09:30;11.50;98.40
26952;DHT22;14507;52.418;13.398;2024-02-26T15:11:56;11.50;98.60
26952;DHT22;14507;52.418;13.398;2024-02-26T15:14:23;11.40;98.90
26952;DHT22;14507;52.418;13.398;2024-02-26T15:16:49;11.40;99.20
26952;DHT22;14507;52.418;13.398;2024-02-26T15:19:16;11.40;99.90
26952;DHT22;14507;52.418;13.398;2024-02-26T15:21:45;11.40;99.90
26952;DHT22;14507;52.418;13.398;2024-02-26T15:24:11;11.40;99.90
26952;DHT22;14507;52.418;13.398;2024-02-26T15:26:38;11.50;99.90
26952;DHT22;14507;52.418;13.398;2024-02-26T15:29:05;11.80;99.90
26952;DHT22;14507;52.418;13.398;2024-02-26T15:31:31;11.80;99.90
26952;DHT22;14507;52.418;13.398;2024-02-26T15:33:57;11.80;99.90